Buri, Brazil
Current Conditions -  °F | °C
As of 9:00 PM on Wednesday 22 Oct 2014 (Local Time) from SBSV Reporting Station
Scattered Clouds Scattered Clouds  
Wind Chill: 77°   Ceiling: Unl
Heat Index: 79°   Visibility: 6mi
Dew Point: 63°   Wind: 7mph
Humidity: 61%   Direction: 160°SSE
Pressure: 30.06"   Gusts: NA
Location:  12.52°S, 38.27°W
Report Text: SBSV 230000Z 16006KT 9999 SCT017 25/17 Q1018
Loading
Personal Weather Stations






























Interactive Weather Map
Tropical Storm Tracking
New forecast layout! Learn more

10-Day Weather Forecast

Advertisements
Track Severe Weather on mobile